createdAt,value
2023-05-19T00:01:18.736Z,8.40
2023-05-19T00:04:04.643Z,8.50
2023-05-19T00:06:32.406Z,8.80
2023-05-19T00:09:01.705Z,8.50
2023-05-19T00:11:28.922Z,7.10
2023-05-19T00:13:57.952Z,8.50
2023-05-19T00:16:26.121Z,7.60
2023-05-19T00:18:53.620Z,8.70
2023-05-19T00:21:20.459Z,7.20
2023-05-19T00:23:46.953Z,7.60
2023-05-19T00:26:13.584Z,7.00
2023-05-19T00:28:42.407Z,7.00
2023-05-19T00:31:09.014Z,6.90
2023-05-19T00:33:35.895Z,6.10
2023-05-19T00:36:03.613Z,6.20
2023-05-19T00:38:31.940Z,6.60
2023-05-19T00:41:00.814Z,6.80
2023-05-19T00:43:29.420Z,5.10
2023-05-19T00:45:56.809Z,5.40
2023-05-19T00:48:25.367Z,6.10
2023-05-19T00:50:54.330Z,6.20
2023-05-19T00:53:23.873Z,5.60
2023-05-19T00:55:50.536Z,6.00
2023-05-19T00:58:18.410Z,5.90
2023-05-19T01:00:45.162Z,6.90
2023-05-19T01:03:11.974Z,5.60
2023-05-19T01:05:44.103Z,5.30
2023-05-19T01:08:10.959Z,6.80
2023-05-19T01:10:37.792Z,6.40
2023-05-19T01:13:05.887Z,5.00
2023-05-19T01:15:55.787Z,5.30
2023-05-19T01:18:48.563Z,6.10
2023-05-19T01:22:00.416Z,5.40
2023-05-19T01:24:32.888Z,4.70
2023-05-19T01:27:41.504Z,4.90
2023-05-19T01:30:22.636Z,4.80
2023-05-19T01:32:52.689Z,4.80
2023-05-19T01:35:23.991Z,4.50
2023-05-19T01:37:57.589Z,4.90
2023-05-19T01:40:25.788Z,4.60
2023-05-19T01:42:57.312Z,4.80
2023-05-19T01:45:29.186Z,4.70
2023-05-19T01:47:58.638Z,4.70
2023-05-19T01:50:25.664Z,4.00
2023-05-19T01:52:53.085Z,4.40
2023-05-19T01:55:22.235Z,4.40
2023-05-19T01:58:06.224Z,4.30
2023-05-19T02:00:53.416Z,4.30
2023-05-19T02:03:42.740Z,4.10
2023-05-19T02:06:15.395Z,4.30
2023-05-19T02:08:50.687Z,4.60
2023-05-19T02:11:27.994Z,4.10
2023-05-19T02:13:59.898Z,3.90
2023-05-19T02:16:28.525Z,3.90
2023-05-19T02:18:55.745Z,3.90
2023-05-19T02:21:22.332Z,4.10
2023-05-19T02:23:50.273Z,4.10
2023-05-19T02:26:19.673Z,4.30
2023-05-19T02:28:46.309Z,3.50
2023-05-19T02:31:12.807Z,3.50
2023-05-19T02:33:39.401Z,3.50
2023-05-19T02:36:06.264Z,3.70
2023-05-19T02:38:32.962Z,3.70
2023-05-19T02:41:00.025Z,3.80
2023-05-19T02:43:26.636Z,3.70
2023-05-19T02:45:53.270Z,3.90
2023-05-19T02:48:20.128Z,3.40
2023-05-19T02:50:46.816Z,3.70
2023-05-19T02:53:13.369Z,3.70
2023-05-19T02:55:40.015Z,3.70
2023-05-19T02:58:06.813Z,3.80
2023-05-19T03:00:34.054Z,3.80
2023-05-19T03:03:02.060Z,3.70
2023-05-19T03:05:29.760Z,3.20
2023-05-19T03:07:56.482Z,3.50
2023-05-19T03:10:23.038Z,3.90
2023-05-19T03:12:50.324Z,3.50
2023-05-19T03:15:18.129Z,3.40
2023-05-19T03:17:44.920Z,3.80
2023-05-19T03:20:12.376Z,4.10
2023-05-19T03:22:39.204Z,3.00
2023-05-19T03:25:06.072Z,3.30
2023-05-19T03:27:32.836Z,3.70
2023-05-19T03:29:59.425Z,3.50
2023-05-19T03:32:26.503Z,3.20
2023-05-19T03:34:53.155Z,3.80
2023-05-19T03:37:19.740Z,3.20
2023-05-19T03:39:46.317Z,4.00
2023-05-19T03:42:13.754Z,3.30
2023-05-19T03:44:40.544Z,3.40
2023-05-19T03:47:07.346Z,3.10
2023-05-19T03:50:01.753Z,3.00
2023-05-19T03:52:47.502Z,3.10
2023-05-19T03:55:29.175Z,3.40
2023-05-19T03:57:56.478Z,3.30
2023-05-19T04:00:23.336Z,3.30
2023-05-19T04:02:51.108Z,2.60
2023-05-19T04:05:17.900Z,3.10
2023-05-19T04:07:46.040Z,2.90
2023-05-19T04:10:13.029Z,2.90
2023-05-19T04:12:40.033Z,2.80
2023-05-19T04:15:07.330Z,3.30
2023-05-19T04:17:34.423Z,3.20
2023-05-19T04:20:01.023Z,2.70
2023-05-19T04:22:28.615Z,2.20
2023-05-19T04:24:55.579Z,2.80
2023-05-19T04:27:22.427Z,2.90
2023-05-19T04:29:49.712Z,3.90
2023-05-19T04:32:18.872Z,3.00
2023-05-19T04:34:45.722Z,3.70
2023-05-19T04:37:19.602Z,3.40
2023-05-19T04:39:46.309Z,3.30
2023-05-19T04:42:13.191Z,2.60
2023-05-19T04:44:40.242Z,2.60
2023-05-19T04:47:08.115Z,2.70
2023-05-19T04:49:38.491Z,3.10
2023-05-19T04:52:12.518Z,2.50
2023-05-19T04:54:41.214Z,2.60
2023-05-19T04:57:09.812Z,2.80
2023-05-19T04:59:37.823Z,3.10
2023-05-19T05:02:06.442Z,2.80
2023-05-19T05:04:35.517Z,3.50
2023-05-19T05:07:02.373Z,3.00
2023-05-19T05:11:18.901Z,3.20
2023-05-19T05:13:47.265Z,2.60
2023-05-19T05:16:15.341Z,2.90
2023-05-19T05:18:44.640Z,2.50
2023-05-19T05:21:12.520Z,3.60
2023-05-19T05:23:40.647Z,3.10
2023-05-19T05:28:15.658Z,3.00
2023-05-19T05:30:43.806Z,3.30
2023-05-19T05:33:12.056Z,2.40
2023-05-19T05:35:39.635Z,3.30
2023-05-19T05:38:07.096Z,2.90
2023-05-19T05:40:34.353Z,3.20
2023-05-19T05:43:01.505Z,3.30
2023-05-19T05:45:30.423Z,3.50
2023-05-19T05:47:58.518Z,3.10
2023-05-19T05:50:25.945Z,3.50
2023-05-19T05:52:53.955Z,3.30
2023-05-19T05:55:21.675Z,3.80
2023-05-19T05:57:50.803Z,3.10
2023-05-19T06:00:18.703Z,3.20
2023-05-19T06:02:50.793Z,2.60
2023-05-19T06:05:18.688Z,3.80
2023-05-19T06:07:46.884Z,3.30
2023-05-19T06:10:17.398Z,3.10
2023-05-19T06:12:44.443Z,4.00
2023-05-19T06:15:11.479Z,4.60
2023-05-19T06:17:48.468Z,3.80
2023-05-19T06:20:16.434Z,4.40
2023-05-19T06:22:43.524Z,4.50
2023-05-19T06:25:10.819Z,4.30
2023-05-19T06:27:37.578Z,3.70
2023-05-19T06:30:04.953Z,4.90
2023-05-19T06:32:35.615Z,4.50
2023-05-19T06:35:02.523Z,3.70
2023-05-19T06:37:29.551Z,3.50
2023-05-19T06:39:57.243Z,4.00
2023-05-19T06:42:25.465Z,3.90
2023-05-19T06:45:07.534Z,3.30
2023-05-19T06:47:34.378Z,4.10
2023-05-19T06:50:01.657Z,3.60
2023-05-19T06:52:30.946Z,3.50
2023-05-19T06:54:58.189Z,3.90
2023-05-19T06:57:25.018Z,3.00
2023-05-19T06:59:51.799Z,3.40
2023-05-19T07:02:18.870Z,3.30
2023-05-19T07:04:46.062Z,3.30
2023-05-19T07:07:13.819Z,3.20
2023-05-19T07:09:40.770Z,3.30
2023-05-19T07:12:08.246Z,3.40
2023-05-19T07:14:36.684Z,3.30
2023-05-19T07:17:03.549Z,2.80
2023-05-19T07:19:31.415Z,3.40
2023-05-19T07:21:59.501Z,3.40
2023-05-19T07:24:27.662Z,3.20
2023-05-19T07:26:54.414Z,3.60
2023-05-19T07:29:21.152Z,3.40
2023-05-19T07:31:48.392Z,4.60
2023-05-19T07:34:15.368Z,3.70
2023-05-19T07:36:42.219Z,4.10
2023-05-19T07:39:09.109Z,3.70
2023-05-19T07:41:36.549Z,3.20
2023-05-19T07:44:07.910Z,3.70
2023-05-19T07:46:35.660Z,3.80
2023-05-19T07:49:02.523Z,3.70
2023-05-19T07:51:29.399Z,3.20
2023-05-19T07:53:57.450Z,3.30
2023-05-19T07:56:25.023Z,3.50
2023-05-19T07:58:51.955Z,3.60
2023-05-19T08:01:18.680Z,4.10
2023-05-19T08:03:45.472Z,3.20
2023-05-19T08:06:12.281Z,3.10
2023-05-19T08:08:39.504Z,3.80
2023-05-19T08:11:06.782Z,3.70
2023-05-19T08:13:34.798Z,4.60
2023-05-19T08:16:01.704Z,4.30
2023-05-19T08:18:28.776Z,3.40
2023-05-19T08:20:55.891Z,3.80
2023-05-19T08:23:23.094Z,2.60
2023-05-19T08:25:49.777Z,3.60
2023-05-19T08:28:17.206Z,3.60
2023-05-19T08:30:43.987Z,3.50
2023-05-19T08:33:10.788Z,4.00
2023-05-19T08:35:38.161Z,3.00
2023-05-19T08:38:04.894Z,3.10
2023-05-19T08:40:34.744Z,2.90
2023-05-19T08:43:03.817Z,3.10
2023-05-19T08:45:31.610Z,3.70
2023-05-19T08:47:58.549Z,3.90
2023-05-19T08:50:30.850Z,3.80
2023-05-19T08:56:10.745Z,4.10
2023-05-19T08:58:44.124Z,3.20
2023-05-19T09:01:15.199Z,3.50
2023-05-19T09:03:43.356Z,3.40
2023-05-19T09:06:14.248Z,3.40
2023-05-19T09:08:42.435Z,3.00
2023-05-19T09:11:10.881Z,3.80
2023-05-19T09:13:38.420Z,3.70
2023-05-19T09:16:05.628Z,3.00
2023-05-19T09:18:32.508Z,3.00
2023-05-19T09:21:03.137Z,3.30
2023-05-19T09:23:33.635Z,3.30
2023-05-19T09:26:07.428Z,3.70
2023-05-19T09:28:36.908Z,3.80
2023-05-19T09:31:11.301Z,3.70
2023-05-19T09:33:41.011Z,3.90
2023-05-19T09:36:10.943Z,3.40
2023-05-19T09:38:39.353Z,3.90
2023-05-19T09:41:07.956Z,4.80
2023-05-19T09:43:35.479Z,4.90
2023-05-19T09:46:07.299Z,5.90
2023-05-19T09:48:37.895Z,6.90
2023-05-19T09:51:08.138Z,6.30
2023-05-19T09:53:35.543Z,6.30
2023-05-19T09:56:04.265Z,5.70
2023-05-19T09:58:35.365Z,6.30
2023-05-19T10:01:03.849Z,5.90
2023-05-19T10:03:33.118Z,6.10
2023-05-19T10:06:01.644Z,7.10
2023-05-19T10:08:30.753Z,6.70
2023-05-19T10:10:58.496Z,6.20
2023-05-19T10:13:26.005Z,7.00
2023-05-19T10:15:59.032Z,6.70
2023-05-19T10:18:29.480Z,6.40
2023-05-19T10:20:57.997Z,7.10
2023-05-19T10:23:25.649Z,5.60
2023-05-19T10:25:56.675Z,5.50
2023-05-19T10:28:28.157Z,4.50
2023-05-19T10:31:01.527Z,4.80
2023-05-19T10:33:39.544Z,5.30
2023-05-19T10:36:25.872Z,4.50
2023-05-19T10:39:22.344Z,4.70
2023-05-19T10:42:17.134Z,2.90
2023-05-19T10:45:13.230Z,3.60
2023-05-19T10:47:44.289Z,3.30
2023-05-19T10:50:11.806Z,2.70
2023-05-19T10:52:39.818Z,3.00
2023-05-19T10:55:17.776Z,3.40
2023-05-19T10:57:57.058Z,2.30
2023-05-19T11:00:28.814Z,2.60
2023-05-19T11:03:15.680Z,3.90
2023-05-19T11:05:45.602Z,2.50
2023-05-19T11:08:13.457Z,3.20
2023-05-19T11:10:44.733Z,3.20
2023-05-19T11:13:20.009Z,3.00
2023-05-19T11:15:46.965Z,2.90
2023-05-19T11:18:17.705Z,3.00
2023-05-19T11:20:55.543Z,3.40
2023-05-19T11:23:26.076Z,2.70
2023-05-19T11:25:55.883Z,3.00
2023-05-19T11:28:28.275Z,3.10
2023-05-19T11:30:57.953Z,3.40
2023-05-19T11:33:27.919Z,4.30
2023-05-19T11:35:58.623Z,2.90
2023-05-19T11:38:26.631Z,3.20
2023-05-19T11:40:54.527Z,3.10
2023-05-19T11:43:26.199Z,3.40
2023-05-19T11:45:56.587Z,3.90
2023-05-19T11:48:25.037Z,4.10
2023-05-19T11:50:52.612Z,3.80
2023-05-19T11:53:20.141Z,3.80
2023-05-19T11:55:48.987Z,3.90
2023-05-19T11:58:16.824Z,4.20
2023-05-19T12:00:47.698Z,4.90
2023-05-19T12:03:15.112Z,5.10
2023-05-19T12:05:52.810Z,4.80
2023-05-19T12:08:21.744Z,5.40
2023-05-19T12:10:52.039Z,4.20
2023-05-19T12:13:19.557Z,3.80
2023-05-19T12:15:46.388Z,3.90
2023-05-19T12:18:13.224Z,4.90
2023-05-19T12:20:40.337Z,4.20
2023-05-19T12:23:07.842Z,4.00
2023-05-19T12:25:35.192Z,4.20
2023-05-19T12:28:06.071Z,4.60
2023-05-19T12:30:34.773Z,3.00
2023-05-19T12:33:03.319Z,3.30
2023-05-19T12:35:34.058Z,3.10
2023-05-19T12:38:05.550Z,4.80
2023-05-19T12:40:35.076Z,4.20
2023-05-19T12:43:02.614Z,4.00
2023-05-19T12:45:37.282Z,4.60
2023-05-19T12:48:06.918Z,3.90
2023-05-19T12:50:34.773Z,3.40
2023-05-19T12:53:02.442Z,3.90
2023-05-19T12:55:29.895Z,3.20
2023-05-19T12:57:58.543Z,3.30
2023-05-19T13:00:28.716Z,3.90
2023-05-19T13:03:05.134Z,3.40
2023-05-19T13:05:37.895Z,3.40
2023-05-19T13:08:09.292Z,3.30
2023-05-19T13:10:37.800Z,4.60
2023-05-19T13:13:05.600Z,4.50
2023-05-19T13:15:34.637Z,3.70
2023-05-19T13:18:03.616Z,4.50
2023-05-19T13:20:30.662Z,4.70
2023-05-19T13:22:57.661Z,5.00
2023-05-19T13:25:24.995Z,5.80
2023-05-19T13:27:51.944Z,5.00
2023-05-19T13:30:22.693Z,5.40
2023-05-19T13:32:49.890Z,6.10
2023-05-19T13:35:16.740Z,5.60
2023-05-19T13:37:43.692Z,7.30
2023-05-19T13:40:11.254Z,5.60
2023-05-19T13:42:38.176Z,8.40
2023-05-19T13:45:05.553Z,6.90
2023-05-19T13:47:32.575Z,7.00
2023-05-19T13:49:59.415Z,7.10
2023-05-19T13:52:28.951Z,6.10
2023-05-19T13:54:57.536Z,6.10
2023-05-19T13:57:26.448Z,5.90
2023-05-19T14:00:01.972Z,6.00
2023-05-19T14:02:39.941Z,6.60
2023-05-19T14:05:08.245Z,5.90
2023-05-19T14:07:35.498Z,7.30
2023-05-19T14:10:05.482Z,5.90
2023-05-19T14:12:41.566Z,6.50
2023-05-19T14:15:19.699Z,6.90
2023-05-19T14:17:46.523Z,5.10
2023-05-19T14:20:13.359Z,5.40
2023-05-19T14:22:40.544Z,5.60
2023-05-19T14:25:07.810Z,4.60
2023-05-19T14:27:34.551Z,4.90
2023-05-19T14:30:01.470Z,5.20
2023-05-19T14:32:30.239Z,3.90
2023-05-19T14:34:58.139Z,3.50
2023-05-19T14:37:28.914Z,4.10
2023-05-19T14:39:57.544Z,4.20
2023-05-19T14:42:25.047Z,5.60
2023-05-19T14:44:51.816Z,4.20
2023-05-19T14:47:18.479Z,5.20
2023-05-19T14:49:45.177Z,5.40
2023-05-19T14:52:11.948Z,6.20
2023-05-19T14:54:39.165Z,6.50
2023-05-19T14:57:07.708Z,6.30
2023-05-19T14:59:37.834Z,7.20
2023-05-19T15:02:05.417Z,6.80
2023-05-19T15:04:32.180Z,7.70
2023-05-19T15:09:32.447Z,7.40
2023-05-19T15:12:01.251Z,6.80
2023-05-19T15:14:30.106Z,7.40
2023-05-19T15:16:57.797Z,6.50
2023-05-19T15:19:26.398Z,7.30
2023-05-19T15:21:53.324Z,8.00
2023-05-19T15:24:20.189Z,6.90
2023-05-19T15:26:47.587Z,6.70
2023-05-19T15:29:14.387Z,6.70
2023-05-19T15:31:41.478Z,7.90
2023-05-19T15:34:08.613Z,7.40
2023-05-19T15:36:35.615Z,6.60
2023-05-19T15:39:03.745Z,6.60
2023-05-19T15:41:30.757Z,6.50
2023-05-19T15:44:00.203Z,6.60
2023-05-19T15:46:27.444Z,7.20
2023-05-19T15:48:54.818Z,6.80
2023-05-19T15:51:21.728Z,6.70
2023-05-19T15:53:48.584Z,6.60
2023-05-19T15:56:15.456Z,6.80
2023-05-19T15:58:42.312Z,5.90
2023-05-19T16:01:09.117Z,6.00
2023-05-19T16:03:36.154Z,5.80
2023-05-19T16:06:03.653Z,6.00
2023-05-19T16:08:30.515Z,6.00
2023-05-19T16:10:57.401Z,7.30
2023-05-19T16:13:24.858Z,6.30
2023-05-19T16:15:52.594Z,5.90
2023-05-19T16:18:19.749Z,5.40
2023-05-19T16:20:46.498Z,5.10
2023-05-19T16:23:13.253Z,6.20
2023-05-19T16:25:40.047Z,5.70
2023-05-19T16:28:06.958Z,5.60
2023-05-19T16:30:34.610Z,5.40
2023-05-19T16:33:01.811Z,4.90
2023-05-19T16:35:29.695Z,4.70
2023-05-19T16:37:57.993Z,5.00
2023-05-19T16:40:24.874Z,5.10
2023-05-19T16:42:54.676Z,5.40
2023-05-19T16:45:21.475Z,5.50
2023-05-19T16:47:48.372Z,4.90
2023-05-19T16:50:15.288Z,5.00
2023-05-19T16:52:44.308Z,3.90
2023-05-19T16:55:11.191Z,4.40
2023-05-19T16:57:38.431Z,4.40
2023-05-19T17:00:05.799Z,3.80
2023-05-19T17:02:32.801Z,3.90
2023-05-19T17:04:59.739Z,4.40
2023-05-19T17:07:29.106Z,3.70
2023-05-19T17:09:56.234Z,11.60
2023-05-19T17:12:23.276Z,5.00
2023-05-19T17:14:52.266Z,4.20
2023-05-19T17:17:19.469Z,3.60
2023-05-19T17:19:46.918Z,4.90
2023-05-19T17:22:13.763Z,5.30
2023-05-19T17:24:41.280Z,5.50
2023-05-19T17:27:08.066Z,6.50
2023-05-19T17:29:34.911Z,5.40
2023-05-19T17:32:04.189Z,6.10
2023-05-19T17:34:30.956Z,6.20
2023-05-19T17:36:57.802Z,5.30
2023-05-19T17:39:24.807Z,5.10
2023-05-19T17:41:52.598Z,6.10
2023-05-19T17:45:16.150Z,5.10
2023-05-19T17:47:47.399Z,5.60
2023-05-19T17:50:23.492Z,5.50
2023-05-19T17:52:54.879Z,5.70
2023-05-19T17:56:03.097Z,3.90
2023-05-19T17:58:36.563Z,4.80
2023-05-19T18:01:03.530Z,5.00
2023-05-19T18:03:31.882Z,4.70
2023-05-19T18:06:02.736Z,5.20
2023-05-19T18:08:32.959Z,4.60
2023-05-19T18:11:00.823Z,5.20
2023-05-19T18:13:28.096Z,5.00
2023-05-19T18:15:57.054Z,4.50
2023-05-19T18:18:25.048Z,5.10
2023-05-19T18:20:52.213Z,4.10
2023-05-19T18:23:20.590Z,4.40
2023-05-19T18:25:53.292Z,4.30
2023-05-19T18:28:20.260Z,4.00
2023-05-19T18:30:47.164Z,4.10
2023-05-19T18:33:14.676Z,4.70
2023-05-19T18:35:42.926Z,5.60
2023-05-19T18:38:09.722Z,4.70
2023-05-19T18:40:39.644Z,5.00
2023-05-19T18:43:06.638Z,3.70
2023-05-19T18:45:33.437Z,3.80
2023-05-19T18:48:00.312Z,4.50
2023-05-19T18:50:27.586Z,5.00
2023-05-19T18:52:54.360Z,5.30
2023-05-19T18:55:21.087Z,5.40
2023-05-19T18:57:47.859Z,4.40
2023-05-19T19:00:15.016Z,4.60
2023-05-19T19:02:41.833Z,4.90
2023-05-19T19:05:11.496Z,4.90
2023-05-19T19:07:43.083Z,5.10
2023-05-19T19:10:10.107Z,5.50
2023-05-19T19:12:37.140Z,4.70
2023-05-19T19:15:04.491Z,5.20
2023-05-19T19:17:31.479Z,5.30
2023-05-19T19:19:58.302Z,4.70
2023-05-19T19:22:25.185Z,4.80
2023-05-19T19:24:51.946Z,5.60
2023-05-19T19:27:20.871Z,5.30
2023-05-19T19:29:47.653Z,5.30
2023-05-19T19:32:14.481Z,5.80
2023-05-19T19:34:41.375Z,5.80
2023-05-19T19:37:08.205Z,5.20
2023-05-19T19:39:34.958Z,5.30
2023-05-19T19:42:01.700Z,5.80
2023-05-19T19:44:28.451Z,5.30
2023-05-19T19:46:55.355Z,6.30
2023-05-19T19:49:22.130Z,6.10
2023-05-19T19:51:48.876Z,6.50
2023-05-19T19:54:15.608Z,4.70
2023-05-19T19:56:42.325Z,6.20
2023-05-19T19:59:09.086Z,5.70
2023-05-19T20:01:35.887Z,5.80
2023-05-19T20:04:04.228Z,6.10
2023-05-19T20:06:32.281Z,6.10
2023-05-19T20:08:59.485Z,5.20
2023-05-19T20:11:26.864Z,5.00
2023-05-19T20:13:53.594Z,5.80
2023-05-19T20:16:20.453Z,6.20
2023-05-19T20:18:47.179Z,6.80
2023-05-19T20:21:13.958Z,6.40
2023-05-19T20:23:40.820Z,6.20
2023-05-19T20:26:12.775Z,5.30
2023-05-19T20:28:40.532Z,4.70
2023-05-19T20:31:07.592Z,5.90
2023-05-19T20:33:34.676Z,5.90
2023-05-19T20:36:01.456Z,5.50
2023-05-19T20:38:28.241Z,5.40
2023-05-19T20:43:58.146Z,5.30
2023-05-19T20:46:24.979Z,5.20
2023-05-19T20:48:52.072Z,5.50
2023-05-19T20:51:19.283Z,5.40
2023-05-19T20:53:46.059Z,5.90
2023-05-19T20:56:13.163Z,10.50
2023-05-19T20:58:40.059Z,6.40
2023-05-19T21:01:06.909Z,5.80
2023-05-19T21:03:33.767Z,6.10
2023-05-19T21:06:00.968Z,5.80
2023-05-19T21:08:27.806Z,6.00
2023-05-19T21:10:54.582Z,5.60
2023-05-19T21:13:21.420Z,5.80
2023-05-19T21:15:49.083Z,5.80
2023-05-19T21:18:16.128Z,5.60
2023-05-19T21:20:42.904Z,5.30
2023-05-19T21:23:09.651Z,5.80
2023-05-19T21:25:36.490Z,5.90
2023-05-19T21:28:03.558Z,5.90
2023-05-19T21:30:30.504Z,6.00
2023-05-19T21:32:57.383Z,6.20
2023-05-19T21:35:24.344Z,6.00
2023-05-19T21:37:51.154Z,5.90
2023-05-19T21:40:17.927Z,4.80
2023-05-19T21:42:44.672Z,5.30
2023-05-19T21:45:11.695Z,5.50
2023-05-19T21:47:38.606Z,5.50
2023-05-19T21:50:06.349Z,5.30
2023-05-19T21:52:33.396Z,5.60
2023-05-19T21:55:00.240Z,4.90
2023-05-19T21:57:26.981Z,5.70
2023-05-19T21:59:53.770Z,5.40
2023-05-19T22:02:21.177Z,6.40
2023-05-19T22:04:48.186Z,5.50
2023-05-19T22:07:15.040Z,4.30
2023-05-19T22:09:41.840Z,6.50
2023-05-19T22:12:08.643Z,5.50
2023-05-19T22:14:35.914Z,5.00
2023-05-19T22:17:02.743Z,4.80
2023-05-19T22:19:29.711Z,4.80
2023-05-19T22:22:09.858Z,4.90
2023-05-19T22:24:39.797Z,5.80
2023-05-19T22:27:09.873Z,5.00
2023-05-19T22:29:38.559Z,4.90
2023-05-19T22:32:07.703Z,4.70
2023-05-19T22:34:34.576Z,4.30
2023-05-19T22:37:01.919Z,4.40
2023-05-19T22:39:28.682Z,5.90
2023-05-19T22:41:55.547Z,6.10
2023-05-19T22:44:22.297Z,5.20
2023-05-19T22:46:49.009Z,5.60
2023-05-19T22:49:16.016Z,5.00
2023-05-19T22:51:42.852Z,5.20
2023-05-19T22:54:10.524Z,4.00
2023-05-19T22:56:37.323Z,5.00
2023-05-19T22:59:04.042Z,4.60
2023-05-19T23:01:31.241Z,5.40
2023-05-19T23:03:58.042Z,5.00
2023-05-19T23:06:24.860Z,4.80
2023-05-19T23:09:00.239Z,5.50
2023-05-19T23:11:26.970Z,5.50
2023-05-19T23:13:53.690Z,5.40
2023-05-19T23:16:20.737Z,5.10
2023-05-19T23:18:47.517Z,4.80
2023-05-19T23:21:14.280Z,5.20
2023-05-19T23:23:41.003Z,4.40
2023-05-19T23:26:07.781Z,5.00
2023-05-19T23:28:34.733Z,4.50
2023-05-19T23:31:01.646Z,5.00
2023-05-19T23:33:28.449Z,4.60
2023-05-19T23:35:55.278Z,4.70
2023-05-19T23:38:22.020Z,5.60
2023-05-19T23:40:48.781Z,5.80
2023-05-19T23:43:15.678Z,5.10
2023-05-19T23:45:42.848Z,5.60
2023-05-19T23:48:09.638Z,5.20
2023-05-19T23:50:36.670Z,6.90
2023-05-19T23:53:03.399Z,6.50
2023-05-19T23:55:30.173Z,8.30
2023-05-19T23:57:56.925Z,7.20
